createdAt,value
2018-08-10T00:00:18.607Z,96088.00
2018-08-10T00:00:50.677Z,96089.00
2018-08-10T00:01:22.754Z,96088.00
2018-08-10T00:01:54.834Z,96083.00
2018-08-10T00:02:26.909Z,96087.00
2018-08-10T00:02:59.006Z,96088.00
2018-08-10T00:03:31.089Z,96091.00
2018-08-10T00:04:03.194Z,96092.00
2018-08-10T00:04:35.293Z,96092.00
2018-08-10T00:05:07.380Z,96093.00
2018-08-10T00:05:39.448Z,96097.00
2018-08-10T00:06:11.575Z,96098.00
2018-08-10T00:06:43.658Z,96103.00
2018-08-10T00:07:15.720Z,96097.00
2018-08-10T00:07:47.801Z,96095.00
2018-08-10T00:08:19.853Z,96097.00
2018-08-10T00:08:51.935Z,96097.00
2018-08-10T00:09:24.010Z,96096.00
2018-08-10T00:09:56.085Z,96097.00
2018-08-10T00:10:28.159Z,96099.00
2018-08-10T00:11:00.217Z,96102.00
2018-08-10T00:11:32.342Z,96098.00
2018-08-10T00:12:04.390Z,96095.00
2018-08-10T00:12:36.440Z,96092.00
2018-08-10T00:13:08.499Z,96096.00
2018-08-10T00:13:40.561Z,96097.00
2018-08-10T00:14:12.634Z,96091.00
2018-08-10T00:14:44.693Z,96095.00
2018-08-10T00:15:16.748Z,96096.00
2018-08-10T00:15:48.847Z,96091.00
2018-08-10T00:16:20.917Z,96091.00
2018-08-10T00:16:53.003Z,96092.00
2018-08-10T00:17:25.070Z,96093.00
2018-08-10T00:17:57.170Z,96093.00
2018-08-10T00:18:29.241Z,96096.00
2018-08-10T00:19:01.290Z,96092.00
2018-08-10T00:19:33.363Z,96092.00
2018-08-10T00:20:05.422Z,96092.00
2018-08-10T00:20:37.466Z,96098.00
2018-08-10T00:21:09.537Z,96101.00
2018-08-10T00:21:41.622Z,96104.00
2018-08-10T00:22:13.701Z,96105.00
2018-08-10T00:22:45.770Z,96103.00
2018-08-10T00:23:17.833Z,96107.00
2018-08-10T00:23:49.901Z,96107.00
2018-08-10T00:24:21.978Z,96108.00
2018-08-10T00:24:54.077Z,96104.00
2018-08-10T00:25:26.134Z,96104.00
2018-08-10T00:25:58.202Z,96108.00
2018-08-10T00:26:30.285Z,96107.00
2018-08-10T00:27:02.351Z,96106.00
2018-08-10T00:27:34.416Z,96107.00
2018-08-10T00:28:06.481Z,96109.00
2018-08-10T00:28:38.572Z,96112.00
2018-08-10T00:29:10.657Z,96105.00
2018-08-10T00:29:42.728Z,96107.00
2018-08-10T00:30:14.787Z,96103.00
2018-08-10T00:30:46.854Z,96107.00
2018-08-10T00:31:18.912Z,96108.00
2018-08-10T00:31:51.065Z,96100.00
2018-08-10T00:32:23.098Z,96098.00
2018-08-10T00:32:55.173Z,96105.00
2018-08-10T00:33:27.338Z,96106.00
2018-08-10T00:33:59.414Z,96105.00
2018-08-10T00:34:31.475Z,96107.00
2018-08-10T00:35:03.552Z,96113.00
2018-08-10T00:35:35.601Z,96111.00
2018-08-10T00:36:07.708Z,96104.00
2018-08-10T00:36:39.758Z,96108.00
2018-08-10T00:37:11.842Z,96107.00
2018-08-10T00:37:43.896Z,96108.00
2018-08-10T00:38:15.997Z,96110.00
2018-08-10T00:38:48.042Z,96106.00
2018-08-10T00:39:20.097Z,96107.00
2018-08-10T00:39:52.160Z,96103.00
2018-08-10T00:40:24.214Z,96107.00
2018-08-10T00:40:56.291Z,96108.00
2018-08-10T00:41:28.366Z,96108.00
2018-08-10T00:42:00.439Z,96103.00
2018-08-10T00:42:32.502Z,96109.00
2018-08-10T00:43:04.556Z,96111.00
2018-08-10T00:43:36.629Z,96112.00
2018-08-10T00:44:08.770Z,96114.00
2018-08-10T00:44:40.830Z,96115.00
2018-08-10T00:45:12.909Z,96117.00
2018-08-10T00:45:44.966Z,96121.00
2018-08-10T00:46:17.033Z,96124.00
2018-08-10T00:46:49.093Z,96126.00
2018-08-10T00:47:21.160Z,96131.00
2018-08-10T00:47:53.240Z,96130.00
2018-08-10T00:48:25.306Z,96133.00
2018-08-10T00:48:57.368Z,96129.00
2018-08-10T00:49:29.441Z,96127.00
2018-08-10T00:50:01.505Z,96126.00
2018-08-10T00:50:33.577Z,96135.00
2018-08-10T00:51:05.638Z,96127.00
2018-08-10T00:51:37.700Z,96126.00
2018-08-10T00:52:09.778Z,96128.00
2018-08-10T00:52:41.906Z,96131.00
2018-08-10T00:53:13.957Z,96130.00
2018-08-10T00:53:46.006Z,96128.00
2018-08-10T00:54:18.075Z,96125.00
2018-08-10T00:54:50.141Z,96127.00
2018-08-10T00:55:22.224Z,96130.00
2018-08-10T00:55:54.271Z,96132.00
2018-08-10T00:56:26.366Z,96133.00
2018-08-10T00:56:58.420Z,96132.00
2018-08-10T00:57:30.500Z,96134.00
2018-08-10T00:58:02.593Z,96133.00
2018-08-10T00:58:34.636Z,96136.00
2018-08-10T00:59:06.695Z,96135.00
2018-08-10T00:59:38.752Z,96134.00
2018-08-10T01:00:10.814Z,96131.00
2018-08-10T01:00:42.892Z,96133.00
2018-08-10T01:01:14.953Z,96132.00
2018-08-10T01:01:47.014Z,96125.00
2018-08-10T01:02:19.065Z,96123.00
2018-08-10T01:02:51.175Z,96122.00
2018-08-10T01:03:23.231Z,96112.00
2018-08-10T01:03:55.301Z,96115.00
2018-08-10T01:04:27.374Z,96117.00
2018-08-10T01:04:59.445Z,96108.00
2018-08-10T01:05:31.536Z,96104.00
2018-08-10T01:06:03.630Z,96101.00
2018-08-10T01:06:35.746Z,96106.00
2018-08-10T01:07:07.850Z,96101.00
2018-08-10T01:07:39.938Z,96102.00
2018-08-10T01:08:11.985Z,96102.00
2018-08-10T01:08:44.058Z,96102.00
2018-08-10T01:09:16.105Z,96099.00
2018-08-10T01:09:48.177Z,96108.00
2018-08-10T01:10:20.234Z,96104.00
2018-08-10T01:10:52.313Z,96108.00
2018-08-10T01:11:24.372Z,96103.00
2018-08-10T01:11:56.445Z,96108.00
2018-08-10T01:12:28.541Z,96104.00
2018-08-10T01:13:00.616Z,96099.00
2018-08-10T01:13:32.786Z,96107.00
2018-08-10T01:14:04.724Z,96110.00
2018-08-10T01:14:36.789Z,96105.00
2018-08-10T01:15:08.857Z,96108.00
2018-08-10T01:15:40.914Z,96104.00
2018-08-10T01:16:12.978Z,96109.00
2018-08-10T01:16:45.041Z,96110.00
2018-08-10T01:17:17.116Z,96112.00
2018-08-10T01:17:49.188Z,96111.00
2018-08-10T01:18:21.239Z,96111.00
2018-08-10T01:18:53.302Z,96111.00
2018-08-10T01:19:25.399Z,96106.00
2018-08-10T01:19:57.423Z,96109.00
2018-08-10T01:20:29.490Z,96107.00
2018-08-10T01:21:01.543Z,96107.00
2018-08-10T01:21:33.602Z,96107.00
2018-08-10T01:22:05.682Z,96110.00
2018-08-10T01:22:37.803Z,96108.00
2018-08-10T01:23:09.859Z,96111.00
2018-08-10T01:23:41.913Z,96115.00
2018-08-10T01:24:13.981Z,96113.00
2018-08-10T01:24:46.040Z,96115.00
2018-08-10T01:25:18.174Z,96116.00
2018-08-10T01:25:50.242Z,96114.00
2018-08-10T01:26:22.304Z,96119.00
2018-08-10T01:26:54.373Z,96117.00
2018-08-10T01:27:26.435Z,96121.00
2018-08-10T01:27:58.514Z,96118.00
2018-08-10T01:28:30.654Z,96113.00
2018-08-10T01:29:02.658Z,96113.00
2018-08-10T01:29:34.706Z,96114.00
2018-08-10T01:30:06.765Z,96114.00
2018-08-10T01:30:38.836Z,96116.00
2018-08-10T01:31:10.927Z,96112.00
2018-08-10T01:31:42.978Z,96113.00
2018-08-10T01:32:15.042Z,96115.00
2018-08-10T01:32:47.130Z,96113.00
2018-08-10T01:33:19.187Z,96109.00
2018-08-10T01:33:51.261Z,96116.00
2018-08-10T01:34:23.324Z,96118.00
2018-08-10T01:34:55.445Z,96114.00
2018-08-10T01:35:27.544Z,96122.00
2018-08-10T01:35:59.627Z,96119.00
2018-08-10T01:36:31.688Z,96118.00
2018-08-10T01:37:03.751Z,96117.00
2018-08-10T01:37:35.811Z,96119.00
2018-08-10T01:38:07.879Z,96122.00
2018-08-10T01:38:39.946Z,96131.00
2018-08-10T01:39:12.036Z,96128.00
2018-08-10T01:39:44.080Z,96124.00
2018-08-10T01:40:16.146Z,96127.00
2018-08-10T01:40:48.208Z,96127.00
2018-08-10T01:41:20.274Z,96127.00
2018-08-10T01:41:52.344Z,96126.00
2018-08-10T01:42:24.414Z,96130.00
2018-08-10T01:42:56.505Z,96126.00
2018-08-10T01:43:28.566Z,96133.00
2018-08-10T01:44:00.653Z,96132.00
2018-08-10T01:44:32.698Z,96136.00
2018-08-10T01:45:04.776Z,96134.00
2018-08-10T01:45:36.823Z,96138.00
2018-08-10T01:46:08.876Z,96140.00
2018-08-10T01:46:40.958Z,96138.00
2018-08-10T01:47:13.016Z,96136.00
2018-08-10T01:47:45.098Z,96140.00
2018-08-10T01:48:17.153Z,96137.00
2018-08-10T01:48:49.234Z,96140.00
2018-08-10T01:49:21.277Z,96141.00
2018-08-10T01:49:53.358Z,96136.00
2018-08-10T01:50:25.508Z,96138.00
2018-08-10T01:50:57.553Z,96136.00
2018-08-10T01:51:29.610Z,96140.00
2018-08-10T01:52:01.675Z,96140.00
2018-08-10T01:52:33.746Z,96141.00
2018-08-10T01:53:05.817Z,96141.00
2018-08-10T01:53:37.883Z,96141.00
2018-08-10T01:54:09.982Z,96139.00
2018-08-10T01:54:42.113Z,96142.00
2018-08-10T01:55:14.154Z,96140.00
2018-08-10T01:55:46.209Z,96142.00
2018-08-10T01:56:18.278Z,96146.00
2018-08-10T01:56:50.332Z,96141.00
2018-08-10T01:57:22.403Z,96140.00
2018-08-10T01:57:54.489Z,96142.00
2018-08-10T01:58:26.553Z,96141.00
2018-08-10T01:58:58.779Z,96141.00
2018-08-10T01:59:30.857Z,96146.00
2018-08-10T02:00:02.969Z,96144.00
2018-08-10T02:00:35.030Z,96144.00
2018-08-10T02:01:07.100Z,96144.00
2018-08-10T02:01:39.167Z,96148.00
2018-08-10T02:02:11.224Z,96146.00
2018-08-10T02:02:43.290Z,96147.00
2018-08-10T02:03:15.341Z,96149.00
2018-08-10T02:03:47.394Z,96147.00
2018-08-10T02:04:19.459Z,96144.00
2018-08-10T02:04:51.520Z,96149.00
2018-08-10T02:05:23.601Z,96151.00
2018-08-10T02:05:55.679Z,96151.00
2018-08-10T02:06:27.749Z,96149.00
2018-08-10T02:06:59.808Z,96152.00
2018-08-10T02:07:31.872Z,96153.00
2018-08-10T02:08:03.928Z,96153.00
2018-08-10T02:08:36.013Z,96155.00
2018-08-10T02:09:08.101Z,96153.00
2018-08-10T02:09:40.177Z,96150.00
2018-08-10T02:10:12.266Z,96155.00
2018-08-10T02:10:44.349Z,96152.00
2018-08-10T02:11:16.413Z,96150.00
2018-08-10T02:11:48.472Z,96151.00
2018-08-10T02:12:20.519Z,96152.00
2018-08-10T02:12:52.579Z,96151.00
2018-08-10T02:13:24.638Z,96151.00
2018-08-10T02:13:56.710Z,96152.00
2018-08-10T02:14:28.784Z,96152.00
2018-08-10T02:15:00.841Z,96151.00
2018-08-10T02:15:32.911Z,96158.00
2018-08-10T02:16:04.977Z,96156.00
2018-08-10T02:16:37.063Z,96156.00
2018-08-10T02:17:09.106Z,96158.00
2018-08-10T02:17:41.172Z,96160.00
2018-08-10T02:18:13.226Z,96158.00
2018-08-10T02:18:45.310Z,96158.00
2018-08-10T02:19:17.370Z,96162.00
2018-08-10T02:19:49.434Z,96161.00
2018-08-10T02:20:21.529Z,96162.00
2018-08-10T02:20:53.586Z,96160.00
2018-08-10T02:21:25.741Z,96160.00
2018-08-10T02:21:57.837Z,96160.00
2018-08-10T02:22:29.892Z,96158.00
2018-08-10T02:23:01.963Z,96160.00
2018-08-10T02:23:34.032Z,96157.00
2018-08-10T02:24:06.077Z,96160.00
2018-08-10T02:24:38.191Z,96157.00
2018-08-10T02:25:10.199Z,96161.00
2018-08-10T02:25:42.348Z,96159.00
2018-08-10T02:26:14.383Z,96161.00
2018-08-10T02:26:46.447Z,96154.00
2018-08-10T02:27:18.501Z,96152.00
2018-08-10T02:27:50.558Z,96154.00
2018-08-10T02:28:22.632Z,96157.00
2018-08-10T02:28:54.689Z,96150.00
2018-08-10T02:29:26.760Z,96156.00
2018-08-10T02:29:58.834Z,96158.00
2018-08-10T02:30:30.877Z,96155.00
2018-08-10T02:31:02.953Z,96153.00
2018-08-10T02:31:35.041Z,96154.00
2018-08-10T02:32:07.130Z,96154.00
2018-08-10T02:32:39.185Z,96156.00
2018-08-10T02:33:11.254Z,96157.00
2018-08-10T02:33:43.314Z,96156.00
2018-08-10T02:34:15.384Z,96151.00
2018-08-10T02:34:47.429Z,96154.00
2018-08-10T02:35:19.494Z,96157.00
2018-08-10T02:35:51.559Z,96155.00
2018-08-10T02:36:23.617Z,96153.00
2018-08-10T02:36:55.718Z,96155.00
2018-08-10T02:37:27.777Z,96155.00
2018-08-10T02:37:59.829Z,96155.00
2018-08-10T02:38:31.890Z,96155.00
2018-08-10T02:39:03.953Z,96156.00
2018-08-10T02:39:36.010Z,96155.00
2018-08-10T02:40:08.069Z,96153.00
2018-08-10T02:40:40.125Z,96151.00
2018-08-10T02:41:12.199Z,96156.00
2018-08-10T02:41:44.276Z,96156.00
2018-08-10T02:42:16.374Z,96153.00
2018-08-10T02:42:48.441Z,96153.00
2018-08-10T02:43:20.517Z,96155.00
2018-08-10T02:43:52.574Z,96153.00
2018-08-10T02:44:24.663Z,96154.00
2018-08-10T02:44:56.727Z,96156.00
2018-08-10T02:45:28.793Z,96153.00
2018-08-10T02:46:00.856Z,96154.00
2018-08-10T02:46:32.910Z,96151.00
2018-08-10T02:47:04.979Z,96158.00
2018-08-10T02:47:37.083Z,96153.00
2018-08-10T02:48:09.137Z,96156.00
2018-08-10T02:48:41.202Z,96153.00
2018-08-10T02:49:13.258Z,96156.00
2018-08-10T02:49:45.321Z,96153.00
2018-08-10T02:50:17.373Z,96153.00
2018-08-10T02:50:49.448Z,96157.00
2018-08-10T02:51:21.523Z,96153.00
2018-08-10T02:51:53.584Z,96151.00
2018-08-10T02:52:25.667Z,96154.00
2018-08-10T02:52:57.934Z,96150.00
2018-08-10T02:53:29.998Z,96152.00
2018-08-10T02:54:02.101Z,96157.00
2018-08-10T02:54:34.145Z,96156.00
2018-08-10T02:55:06.209Z,96152.00
2018-08-10T02:55:38.278Z,96152.00
2018-08-10T02:56:10.329Z,96157.00
2018-08-10T02:56:42.397Z,96160.00
2018-08-10T02:57:14.516Z,96157.00
2018-08-10T02:57:46.571Z,96151.00
2018-08-10T02:58:18.632Z,96159.00
2018-08-10T02:58:50.692Z,96158.00
2018-08-10T02:59:22.777Z,96158.00
2018-08-10T02:59:54.844Z,96156.00
2018-08-10T03:00:26.897Z,96155.00
2018-08-10T03:00:58.957Z,96158.00
2018-08-10T03:01:31.019Z,96156.00
2018-08-10T03:02:03.081Z,96151.00
2018-08-10T03:02:35.143Z,96156.00
2018-08-10T03:03:07.193Z,96154.00
2018-08-10T03:03:39.287Z,96154.00
2018-08-10T03:04:11.346Z,96153.00
2018-08-10T03:04:43.445Z,96154.00
2018-08-10T03:05:15.518Z,96151.00
2018-08-10T03:05:47.565Z,96153.00
2018-08-10T03:06:19.629Z,96148.00
2018-08-10T03:06:51.694Z,96150.00
2018-08-10T03:07:23.760Z,96151.00
2018-08-10T03:07:55.832Z,96159.00
2018-08-10T03:08:27.882Z,96156.00
2018-08-10T03:08:59.970Z,96157.00
2018-08-10T03:09:32.040Z,96155.00
2018-08-10T03:10:04.101Z,96152.00
2018-08-10T03:10:36.164Z,96155.00
2018-08-10T03:11:08.227Z,96151.00
2018-08-10T03:11:40.301Z,96153.00
2018-08-10T03:12:12.362Z,96159.00
2018-08-10T03:12:44.420Z,96147.00
2018-08-10T03:13:16.506Z,96152.00
2018-08-10T03:13:48.561Z,96154.00
2018-08-10T03:14:20.648Z,96151.00
2018-08-10T03:14:52.737Z,96154.00
2018-08-10T03:15:24.805Z,96151.00
2018-08-10T03:15:56.880Z,96155.00
2018-08-10T03:16:28.942Z,96154.00
2018-08-10T03:17:01.004Z,96153.00
2018-08-10T03:17:33.074Z,96155.00
2018-08-10T03:18:05.126Z,96155.00
2018-08-10T03:18:37.192Z,96153.00
2018-08-10T03:19:09.246Z,96154.00
2018-08-10T03:19:41.313Z,96156.00
2018-08-10T03:20:13.384Z,96150.00
2018-08-10T03:20:45.453Z,96156.00
2018-08-10T03:21:17.510Z,96156.00
2018-08-10T03:21:49.566Z,96157.00
2018-08-10T03:22:21.632Z,96162.00
2018-08-10T03:22:53.722Z,96155.00
2018-08-10T03:23:25.787Z,96159.00
2018-08-10T03:23:57.849Z,96162.00
2018-08-10T03:24:29.964Z,96153.00
2018-08-10T03:25:02.121Z,96158.00
2018-08-10T03:25:34.170Z,96159.00
2018-08-10T03:26:06.237Z,96159.00
2018-08-10T03:26:38.323Z,96151.00
2018-08-10T03:27:10.405Z,96159.00
2018-08-10T03:27:42.485Z,96156.00
2018-08-10T03:28:14.566Z,96158.00
2018-08-10T03:28:46.632Z,96155.00
2018-08-10T03:29:18.700Z,96151.00
2018-08-10T03:29:50.754Z,96159.00
2018-08-10T03:30:22.817Z,96160.00
2018-08-10T03:30:54.951Z,96163.00
2018-08-10T03:31:26.999Z,96165.00
2018-08-10T03:31:59.059Z,96165.00
2018-08-10T03:32:31.130Z,96163.00
2018-08-10T03:33:03.199Z,96161.00
2018-08-10T03:33:35.252Z,96160.00
2018-08-10T03:34:07.310Z,96159.00
2018-08-10T03:34:39.389Z,96159.00
2018-08-10T03:35:11.447Z,96162.00
2018-08-10T03:35:43.666Z,96163.00
2018-08-10T03:36:15.753Z,96161.00
2018-08-10T03:36:47.805Z,96164.00
2018-08-10T03:37:19.889Z,96161.00
2018-08-10T03:37:51.974Z,96157.00
2018-08-10T03:38:24.023Z,96161.00
2018-08-10T03:38:56.085Z,96163.00
2018-08-10T03:39:28.141Z,96163.00
2018-08-10T03:40:00.213Z,96164.00
2018-08-10T03:40:32.279Z,96163.00
2018-08-10T03:41:04.381Z,96163.00
2018-08-10T03:41:36.445Z,96164.00
2018-08-10T03:42:08.580Z,96163.00
2018-08-10T03:42:40.682Z,96158.00
2018-08-10T03:43:12.755Z,96161.00
2018-08-10T03:43:44.806Z,96159.00
2018-08-10T03:44:16.881Z,96159.00
2018-08-10T03:44:48.938Z,96163.00
2018-08-10T03:45:21.011Z,96165.00
2018-08-10T03:45:53.104Z,96164.00
2018-08-10T03:46:25.178Z,96167.00
2018-08-10T03:46:57.225Z,96170.00
2018-08-10T03:47:29.291Z,96165.00
2018-08-10T03:48:01.349Z,96167.00
2018-08-10T03:48:33.414Z,96168.00
2018-08-10T03:49:05.496Z,96170.00
2018-08-10T03:49:37.543Z,96170.00
2018-08-10T03:50:09.611Z,96173.00
2018-08-10T03:50:41.685Z,96176.00
2018-08-10T03:51:13.737Z,96177.00
2018-08-10T03:51:45.813Z,96176.00
2018-08-10T03:52:17.879Z,96175.00
2018-08-10T03:52:49.942Z,96173.00
2018-08-10T03:53:22.007Z,96176.00
2018-08-10T03:53:54.138Z,96176.00
2018-08-10T03:54:26.188Z,96176.00
2018-08-10T03:54:58.342Z,96170.00
2018-08-10T03:55:30.385Z,96176.00
2018-08-10T03:56:02.452Z,96178.00
2018-08-10T03:56:34.517Z,96180.00
2018-08-10T03:57:06.578Z,96174.00
2018-08-10T03:57:38.640Z,96181.00
2018-08-10T03:58:10.706Z,96184.00
2018-08-10T03:58:42.785Z,96181.00
2018-08-10T03:59:14.847Z,96183.00
2018-08-10T03:59:46.914Z,96187.00
2018-08-10T04:00:18.981Z,96185.00
2018-08-10T04:00:51.074Z,96179.00
2018-08-10T04:01:23.121Z,96174.00
2018-08-10T04:01:55.209Z,96185.00
2018-08-10T04:02:27.248Z,96182.00
2018-08-10T04:02:59.321Z,96182.00
2018-08-10T04:03:31.385Z,96185.00
2018-08-10T04:04:03.440Z,96188.00
2018-08-10T04:04:35.501Z,96184.00
2018-08-10T04:05:07.569Z,96188.00
2018-08-10T04:05:39.629Z,96189.00
2018-08-10T04:06:11.680Z,96189.00
2018-08-10T04:06:43.740Z,96187.00
2018-08-10T04:07:15.821Z,96189.00
2018-08-10T04:07:47.879Z,96187.00
2018-08-10T04:08:19.949Z,96198.00
2018-08-10T04:08:52.039Z,96196.00
2018-08-10T04:09:24.132Z,96200.00
2018-08-10T04:09:56.201Z,96198.00
2018-08-10T04:10:28.274Z,96199.00
2018-08-10T04:11:00.333Z,96201.00
2018-08-10T04:11:32.398Z,96207.00
2018-08-10T04:12:04.465Z,96204.00
2018-08-10T04:12:36.541Z,96203.00
2018-08-10T04:13:08.605Z,96206.00
2018-08-10T04:13:40.651Z,96205.00
2018-08-10T04:14:12.725Z,96207.00
2018-08-10T04:14:44.809Z,96204.00
2018-08-10T04:15:16.876Z,96205.00
2018-08-10T04:15:48.930Z,96205.00
2018-08-10T04:16:20.999Z,96205.00
2018-08-10T04:16:53.069Z,96212.00
2018-08-10T04:17:25.131Z,96206.00
2018-08-10T04:17:57.189Z,96206.00
2018-08-10T04:18:29.241Z,96204.00
2018-08-10T04:19:01.313Z,96203.00
2018-08-10T04:19:33.390Z,96205.00
2018-08-10T04:20:05.464Z,96203.00
2018-08-10T04:20:37.532Z,96204.00
2018-08-10T04:21:09.618Z,96205.00
2018-08-10T04:21:41.691Z,96208.00
2018-08-10T04:22:13.757Z,96210.00
2018-08-10T04:22:45.822Z,96207.00
2018-08-10T04:23:17.893Z,96203.00
2018-08-10T04:23:49.958Z,96213.00
2018-08-10T04:24:22.027Z,96207.00
2018-08-10T04:24:54.110Z,96213.00
2018-08-10T04:25:26.188Z,96213.00
2018-08-10T04:25:58.566Z,96210.00
2018-08-10T04:26:30.611Z,96216.00
2018-08-10T04:27:02.665Z,96214.00
2018-08-10T04:27:34.732Z,96215.00
2018-08-10T04:28:06.796Z,96214.00
2018-08-10T04:28:38.874Z,96216.00
2018-08-10T04:29:10.934Z,96218.00
2018-08-10T04:29:43.024Z,96218.00
2018-08-10T04:30:15.060Z,96221.00
2018-08-10T04:30:47.144Z,96222.00
2018-08-10T04:31:19.208Z,96222.00
2018-08-10T04:31:51.271Z,96220.00
2018-08-10T04:32:23.349Z,96219.00
2018-08-10T04:32:55.437Z,96220.00
2018-08-10T04:33:27.492Z,96219.00
2018-08-10T04:33:59.552Z,96216.00
2018-08-10T04:34:31.613Z,96223.00
2018-08-10T04:35:03.677Z,96222.00
2018-08-10T04:35:35.742Z,96222.00
2018-08-10T04:36:07.794Z,96220.00
2018-08-10T04:36:39.857Z,96224.00
2018-08-10T04:37:11.918Z,96223.00
2018-08-10T04:37:43.989Z,96224.00
2018-08-10T04:38:16.058Z,96225.00
2018-08-10T04:38:48.117Z,96225.00
2018-08-10T04:39:20.179Z,96223.00
2018-08-10T04:39:52.262Z,96227.00
2018-08-10T04:40:24.327Z,96229.00
2018-08-10T04:40:56.396Z,96226.00
2018-08-10T04:41:28.469Z,96229.00
2018-08-10T04:42:00.532Z,96226.00
2018-08-10T04:42:32.600Z,96226.00
2018-08-10T04:43:04.665Z,96232.00
2018-08-10T04:43:36.721Z,96232.00
2018-08-10T04:44:08.785Z,96229.00
2018-08-10T04:44:40.845Z,96224.00
2018-08-10T04:45:12.909Z,96228.00
2018-08-10T04:45:44.957Z,96229.00
2018-08-10T04:46:17.018Z,96225.00
2018-08-10T04:46:49.078Z,96227.00
2018-08-10T04:47:21.141Z,96230.00
2018-08-10T04:47:53.211Z,96228.00
2018-08-10T04:48:25.265Z,96233.00
2018-08-10T04:48:57.372Z,96233.00
2018-08-10T04:49:29.447Z,96234.00
2018-08-10T04:50:01.513Z,96232.00
2018-08-10T04:50:33.583Z,96229.00
2018-08-10T04:51:05.658Z,96230.00
2018-08-10T04:51:37.722Z,96232.00
2018-08-10T04:52:09.785Z,96231.00
2018-08-10T04:52:41.851Z,96233.00
2018-08-10T04:53:13.908Z,96233.00
2018-08-10T04:53:45.961Z,96235.00
2018-08-10T04:54:18.046Z,96235.00
2018-08-10T04:54:50.117Z,96233.00
2018-08-10T04:55:22.225Z,96235.00
2018-08-10T04:55:54.249Z,96237.00
2018-08-10T04:56:26.304Z,96236.00
2018-08-10T04:56:58.358Z,96235.00
2018-08-10T04:57:30.425Z,96237.00
2018-08-10T04:58:02.496Z,96234.00
2018-08-10T04:58:34.565Z,96239.00
2018-08-10T04:59:06.629Z,96232.00
2018-08-10T04:59:38.698Z,96238.00
2018-08-10T05:00:10.792Z,96234.00
2018-08-10T05:00:42.874Z,96238.00
2018-08-10T05:01:14.942Z,96232.00
2018-08-10T05:01:46.993Z,96236.00
2018-08-10T05:02:19.054Z,96238.00
2018-08-10T05:02:51.145Z,96237.00
2018-08-10T05:03:23.231Z,96240.00
2018-08-10T05:03:55.276Z,96233.00
2018-08-10T05:04:27.355Z,96237.00
2018-08-10T05:04:59.421Z,96233.00
2018-08-10T05:05:31.472Z,96237.00
2018-08-10T05:06:03.561Z,96237.00
2018-08-10T05:06:35.712Z,96238.00
2018-08-10T05:07:07.761Z,96244.00
2018-08-10T05:07:39.818Z,96239.00
2018-08-10T05:08:11.872Z,96241.00
2018-08-10T05:08:43.933Z,96243.00
2018-08-10T05:09:15.996Z,96240.00
2018-08-10T05:09:48.095Z,96243.00
2018-08-10T05:10:20.134Z,96244.00
2018-08-10T05:10:52.192Z,96246.00
2018-08-10T05:11:24.257Z,96248.00
2018-08-10T05:11:56.315Z,96243.00
2018-08-10T05:12:28.393Z,96249.00
2018-08-10T05:13:00.450Z,96247.00
2018-08-10T05:13:32.517Z,96245.00
2018-08-10T05:14:04.574Z,96250.00
2018-08-10T05:14:36.684Z,96252.00
2018-08-10T05:15:08.750Z,96252.00
2018-08-10T05:15:40.845Z,96246.00
2018-08-10T05:16:12.913Z,96252.00
2018-08-10T05:16:44.998Z,96252.00
2018-08-10T05:17:17.077Z,96246.00
2018-08-10T05:17:49.161Z,96250.00
2018-08-10T05:18:21.215Z,96251.00
2018-08-10T05:18:53.293Z,96255.00
2018-08-10T05:19:25.351Z,96254.00
2018-08-10T05:19:57.400Z,96256.00
2018-08-10T05:20:29.467Z,96258.00
2018-08-10T05:21:01.524Z,96258.00
2018-08-10T05:21:33.594Z,96259.00
2018-08-10T05:22:05.716Z,96258.00
2018-08-10T05:22:37.784Z,96259.00
2018-08-10T05:23:09.868Z,96259.00
2018-08-10T05:23:41.974Z,96261.00
2018-08-10T05:24:14.013Z,96258.00
2018-08-10T05:24:46.091Z,96263.00
2018-08-10T05:25:18.133Z,96265.00
2018-08-10T05:25:50.221Z,96263.00
2018-08-10T05:26:22.260Z,96268.00
2018-08-10T05:26:54.313Z,96263.00
2018-08-10T05:27:26.451Z,96265.00
2018-08-10T05:27:58.504Z,96266.00
2018-08-10T05:28:30.560Z,96267.00
2018-08-10T05:29:02.626Z,96270.00
2018-08-10T05:29:34.694Z,96267.00
2018-08-10T05:30:06.763Z,96270.00
2018-08-10T05:30:38.822Z,96268.00
2018-08-10T05:31:10.890Z,96271.00
2018-08-10T05:31:42.946Z,96267.00
2018-08-10T05:32:15.013Z,96269.00
2018-08-10T05:32:47.083Z,96266.00
2018-08-10T05:33:19.196Z,96267.00
2018-08-10T05:33:51.449Z,96271.00
2018-08-10T05:34:23.509Z,96269.00
2018-08-10T05:34:55.633Z,96273.00
2018-08-10T05:35:27.632Z,96276.00
2018-08-10T05:35:59.690Z,96280.00
2018-08-10T05:36:31.761Z,96287.00
2018-08-10T05:37:03.961Z,96288.00
2018-08-10T05:37:36.599Z,96294.00
2018-08-10T05:38:08.702Z,96296.00
2018-08-10T05:38:40.758Z,96302.00
2018-08-10T05:39:12.817Z,96302.00
2018-08-10T05:39:44.874Z,96301.00
2018-08-10T05:40:16.933Z,96301.00
2018-08-10T05:40:49.004Z,96302.00
2018-08-10T05:41:21.074Z,96304.00
2018-08-10T05:41:53.173Z,96311.00
2018-08-10T05:42:25.229Z,96311.00
2018-08-10T05:42:57.329Z,96312.00
2018-08-10T05:43:29.406Z,96314.00
2018-08-10T05:44:01.601Z,96314.00
2018-08-10T05:44:33.617Z,96310.00
2018-08-10T05:45:05.685Z,96315.00
2018-08-10T05:45:37.765Z,96314.00
2018-08-10T05:46:09.829Z,96314.00
2018-08-10T05:46:41.905Z,96319.00
2018-08-10T05:47:14.105Z,96321.00
2018-08-10T05:47:46.164Z,96315.00
2018-08-10T05:48:18.230Z,96319.00
2018-08-10T05:48:50.303Z,96316.00
2018-08-10T05:49:22.379Z,96327.00
2018-08-10T05:49:54.459Z,96324.00
2018-08-10T05:50:26.502Z,96323.00
2018-08-10T05:50:58.587Z,96323.00
2018-08-10T05:51:30.673Z,96324.00
2018-08-10T05:52:02.730Z,96320.00
2018-08-10T05:52:34.844Z,96319.00
2018-08-10T05:53:06.860Z,96317.00
2018-08-10T05:53:38.917Z,96320.00
2018-08-10T05:54:10.985Z,96320.00
2018-08-10T05:54:43.036Z,96318.00
2018-08-10T05:55:15.117Z,96320.00
2018-08-10T05:55:47.182Z,96325.00
2018-08-10T05:56:19.263Z,96322.00
2018-08-10T05:56:51.315Z,96324.00
2018-08-10T05:57:23.409Z,96324.00
2018-08-10T05:57:55.441Z,96326.00
2018-08-10T05:58:27.515Z,96325.00
2018-08-10T05:58:59.571Z,96322.00
2018-08-10T05:59:31.650Z,96323.00
2018-08-10T06:00:03.713Z,96324.00
2018-08-10T06:00:35.806Z,96325.00
2018-08-10T06:01:07.873Z,96327.00
2018-08-10T06:01:39.955Z,96330.00
2018-08-10T06:02:12.017Z,96335.00
2018-08-10T06:02:44.080Z,96332.00
2018-08-10T06:03:16.143Z,96338.00
2018-08-10T06:03:48.266Z,96337.00
2018-08-10T06:04:20.263Z,96341.00
2018-08-10T06:04:52.310Z,96341.00
2018-08-10T06:05:24.384Z,96344.00
2018-08-10T06:05:56.469Z,96348.00
2018-08-10T06:06:28.517Z,96346.00
2018-08-10T06:07:00.590Z,96345.00
2018-08-10T06:07:32.641Z,96352.00
2018-08-10T06:08:04.710Z,96354.00
2018-08-10T06:08:36.764Z,96360.00
2018-08-10T06:09:08.830Z,96359.00
2018-08-10T06:09:40.896Z,96359.00
2018-08-10T06:10:12.958Z,96360.00
2018-08-10T06:10:45.019Z,96358.00
2018-08-10T06:11:17.093Z,96360.00
2018-08-10T06:11:49.158Z,96360.00
2018-08-10T06:12:21.214Z,96363.00
2018-08-10T06:12:53.282Z,96365.00
2018-08-10T06:13:25.332Z,96369.00
2018-08-10T06:13:57.417Z,96373.00
2018-08-10T06:14:29.472Z,96369.00
2018-08-10T06:15:01.546Z,96374.00
2018-08-10T06:15:33.670Z,96372.00
2018-08-10T06:16:05.696Z,96374.00
2018-08-10T06:16:37.763Z,96378.00